Flight Track Log - Related Links

Times and Time Zones

All times are in EDT time to prevent confusion due to time zone crossing. See the SWA2955 flight status page for this flight to view local times or setup timezone preferences in your user account.

Time Position Orientation Groundspeed Altitude Reporting Facility
EDT Latitude Longitude Course Direction KTS MPH feet Rate Location/Type
Sun 09:17:03 PM 34.1758 -118.4222 269° West 238 274 5,100  Level Los Angeles Center
Sun 09:18:05 PM 34.2500 -118.4708 332° Northwest 252 290 10,000 4,065 Climbing Los Angeles Center
Sun 09:19:07 PM 34.3161 -118.5181 329° Northwest 271 312 13,500 3,581 Climbing Los Angeles Center
Sun 09:20:09 PM 34.3883 -118.5669 331° Northwest 296 341 17,400 2,710 Climbing Los Angeles Center
Sun 09:21:00 PM 34.2240 -118.5740 320° Northwest  Level FlightAware Approximate
Sun 09:21:11 PM 34.4653 -118.6217 330° Northwest 329 379 19,100  Level Los Angeles Center
Sun 09:22:13 PM 34.5564 -118.6864 330° Northwest 379 436 21,700 2,952 Climbing Los Angeles Center
Sun 09:23:15 PM 34.6672 -118.7667 329° Northwest 387 445 25,200 2,758 Climbing Los Angeles Center
Sun 09:24:17 PM 34.7650 -118.8353 330° Northwest 402 463 27,400 2,419 Climbing Los Angeles Center
Sun 09:25:19 PM 34.8581 -118.9089 327° Northwest 402 463 30,200 2,613 Climbing Los Angeles Center
Sun 09:26:21 PM 34.9272 -119.0258 306° West 392 451 32,800 2,468 Climbing Los Angeles Center
Sun 09:27:23 PM 34.9886 -119.1278 306° West 376 433 35,300 1,887 Climbing Los Angeles Center
Sun 09:28:25 PM 35.0481 -119.2308 305° West 373 429 36,700 1,306 Climbing Los Angeles Center
Sun 09:29:27 PM 35.1075 -119.3331 305° West 372 428 38,000 629 Climbing Los Angeles Center
Sun 09:30:29 PM 35.1669 -119.4358 305° West 372 428 38,000  Level Los Angeles Center
Sun 09:31:31 PM 35.2247 -119.5369 305° West 366 421 38,000  Level Los Angeles Center
Sun 09:32:32 PM 35.2833 -119.6386 305° West 367 422 38,000  Level Los Angeles Center
Sun 09:33:35 PM 35.3536 -119.7611 305° West 366 421 38,000  Level Los Angeles Center
Sun 09:34:16 PM 35.3872 -119.8208 305° West 366 421 38,000  Level Oakland Center
Sun 09:35:17 PM 35.4461 -119.9222 306° West 368 423 38,000  Level Oakland Center
Sun 09:36:18 PM 35.5028 -120.0239 304° West 365 420 38,000  Level Oakland Center
Sun 09:37:19 PM 35.5717 -120.1458 305° West 367 422 38,000  Level Oakland Center
Sun 09:38:20 PM 35.6292 -120.2475 305° West 367 422 38,000  Level Oakland Center
Sun 09:39:21 PM 35.6869 -120.3514 304° West 370 426 38,000  Level Oakland Center
Sun 09:40:22 PM 35.7356 -120.4617 299° West 369 425 38,000  Level Oakland Center
Sun 09:41:23 PM 35.7850 -120.5728 299° West 372 428 38,000  Level Oakland Center
Sun 09:42:24 PM 35.8350 -120.6828 299° West 371 427 38,000 -590 Level Oakland Center
Sun 09:43:25 PM 35.8839 -120.7922 299° West 368 423 36,800 -1,317 Descending Oakland Center
Sun 09:44:27 PM 35.9306 -120.8978 299° West 357 411 35,300 -1,659 Descending Oakland Center
Sun 09:45:28 PM 35.9861 -121.0217 299° West 352 405 33,400 -1,918 Descending Oakland Center
Sun 09:46:29 PM 36.0636 -121.0917 324° Northwest 345 397 31,400 -2,115 Descending Oakland Center
Sun 09:47:30 PM 36.1414 -121.1553 327° Northwest 338 389 29,100 -2,656 Descending Oakland Center
Sun 09:48:31 PM 36.2172 -121.2200 325° Northwest 334 384 26,000 -2,803 Descending Oakland Center
Sun 09:49:32 PM 36.3031 -121.2856 328° Northwest 357 411 23,400 -1,902 Descending Oakland Center
Sun 09:50:34 PM 36.3800 -121.3536 325° Northwest 344 396 22,100 -1,707 Descending Oakland Center
Sun 09:51:35 PM 36.4558 -121.4178 326° Northwest 331 381 19,900 -2,311 Descending Oakland Center
Sun 09:52:36 PM 36.5317 -121.4767 328° Northwest 323 372 17,400 -2,705 Descending Oakland Center
Sun 09:53:37 PM 36.6269 -121.5097 344° North 350 403 14,400 -2,410 Descending Oakland Center
Sun 09:54:38 PM 36.7167 -121.5425 344° North 334 384 12,500 -2,016 Descending Oakland Center
Sun 09:55:39 PM 36.8186 -121.5811 343° North 317 365 10,300 -1,561 Descending Oakland Center
Sun 09:56:41 PM 36.8886 -121.6119 341° North 292 336 9,300 -1,122 Descending Oakland Center
Sun 09:57:42 PM 36.9594 -121.6364 345° North 271 312 8,000 -1,033 Descending Oakland Center
Sun 09:58:43 PM 37.0244 -121.6586 345° North 250 288 7,200 -934 Descending Oakland Center
Sun 09:59:44 PM 37.0856 -121.6825 343° North 234 269 6,100 -1,082 Descending Oakland Center
Sun 10:00:45 PM 37.1453 -121.7072 342° North 229 264 5,000 -934 Descending Oakland Center
Sun 10:01:46 PM 37.1972 -121.7436 331° Northwest 223 257 4,200 -984 Descending Oakland Center
Sun 10:02:47 PM 37.2411 -121.7981 315° West 222 255 3,000 -1,131 Descending Oakland Center
Sun 10:03:48 PM 37.2853 -121.8439 320° Northwest 186 214 1,900 -927 Descending Oakland Center
Sun 10:04:50 PM 37.3169 -121.8761 321° Northwest 165 190 1,100 -683 Descending Oakland Center
Sun 10:05:51 PM 37.3419 -121.9039 319° Northwest 140 161 500 17,164 Descending Oakland Center
Sun 10:06:52 PM 37.3653 -121.9314 317° Northwest 115 132 36,000 34,918 Climbing Oakland Center
Sun 10:08:00 PM 37.3627 -121.9291 North  Level Estimated
Sun 10:15:00 PM 37.3627 -121.9291 North  Level Estimated

Login

Don't have an account? Register now (free) for customized features, flight alerts, and more!